Aviation Digital Data Service (ADDS)

Output produced by METARs form (1016 UTC 23 March 2017)
found at http://aviationweather.gov/adds/metars/
 
KMSS 230528Z 2306/2406 00000KT P6SM SKC 
     FM231400 26007KT P6SM SKC 
     FM232300 22006KT P6SM SCT200 
     FM240400 20006KT P6SM BKN110